QFA930 PAFA-PAJN
Flight info
| Callsign | QFA930 |
|---|---|
| Flight time | 1h 27m |
| Altitude | 37000 |
| Route | RDFLG J502 ORT Q902 IGSOM WOGUS Q902 SSR |
| Aircraft | B738/M-L/LB1 |
Departure
| Time | 2026-04-29 10:13 |
|---|---|
| Airport | Fairbanks International Airport (PAFA) |
Arrival
| Time | 2026-04-29 11:40 |
|---|---|
| Airport | Juneau International Airport (PAJN) |
| Time | Latitude | Longitude | Altitude | Speed | Heading |
|---|---|---|---|---|---|
| 2026-04-29 09:12 | 64.81731 | -147.86611 | 443 ft | 0 kts | 327° |
| 2026-04-29 10:03 | 64.81730 | -147.86608 | 443 ft | 2 kts | 326° |
| 2026-04-29 10:03 | 64.81716 | -147.86588 | 443 ft | 2 kts | 327° |
| 2026-04-29 10:03 | 64.81703 | -147.86567 | 443 ft | 2 kts | 327° |
| 2026-04-29 10:04 | 64.81690 | -147.86547 | 443 ft | 2 kts | 327° |
| 2026-04-29 10:04 | 64.81677 | -147.86527 | 443 ft | 2 kts | 323° |
| 2026-04-29 10:04 | 64.81670 | -147.86506 | 443 ft | 2 kts | 264° |
| 2026-04-29 10:04 | 64.81677 | -147.86481 | 443 ft | 3 kts | 216° |
| 2026-04-29 10:05 | 64.81690 | -147.86458 | 443 ft | 2 kts | 218° |
| 2026-04-29 10:05 | 64.81702 | -147.86435 | 443 ft | 2 kts | 218° |
| 2026-04-29 10:05 | 64.81711 | -147.86418 | 443 ft | 0 kts | 218° |
| 2026-04-29 10:07 | 64.81695 | -147.86443 | 443 ft | 11 kts | 208° |
| 2026-04-29 10:07 | 64.81600 | -147.86493 | 443 ft | 16 kts | 200° |
| 2026-04-29 10:07 | 64.81493 | -147.86650 | 443 ft | 20 kts | 217° |
| 2026-04-29 10:08 | 64.81374 | -147.86863 | 443 ft | 22 kts | 218° |
| 2026-04-29 10:08 | 64.81256 | -147.87084 | 443 ft | 22 kts | 217° |
| 2026-04-29 10:08 | 64.81130 | -147.87318 | 443 ft | 24 kts | 218° |
| 2026-04-29 10:08 | 64.81006 | -147.87552 | 443 ft | 22 kts | 219° |
| 2026-04-29 10:09 | 64.80888 | -147.87774 | 443 ft | 21 kts | 218° |
| 2026-04-29 10:09 | 64.80774 | -147.87985 | 443 ft | 20 kts | 218° |
| 2026-04-29 10:09 | 64.80664 | -147.88188 | 443 ft | 20 kts | 219° |
| 2026-04-29 10:09 | 64.80562 | -147.88372 | 443 ft | 17 kts | 217° |
| 2026-04-29 10:10 | 64.80472 | -147.88536 | 443 ft | 16 kts | 218° |
| 2026-04-29 10:10 | 64.80396 | -147.88672 | 443 ft | 11 kts | 211° |
| 2026-04-29 10:10 | 64.80335 | -147.88694 | 443 ft | 8 kts | 165° |
| 2026-04-29 10:10 | 64.80296 | -147.88621 | 443 ft | 7 kts | 126° |
| 2026-04-29 10:11 | 64.80293 | -147.88542 | 443 ft | 3 kts | 47° |
| 2026-04-29 10:11 | 64.80294 | -147.88538 | 443 ft | 0 kts | 43° |
| 2026-04-29 10:11 | 64.80297 | -147.88534 | 443 ft | 0 kts | 40° |
| 2026-04-29 10:12 | 64.80372 | -147.88392 | 443 ft | 49 kts | 38° |
| 2026-04-29 10:12 | 64.80862 | -147.87490 | 443 ft | 127 kts | 38° |
| 2026-04-29 10:12 | 64.81707 | -147.85930 | 705 ft | 164 kts | 39° |
| 2026-04-29 10:13 | 64.82564 | -147.84258 | 1710 ft | 164 kts | 43° |
| 2026-04-29 10:13 | 64.83185 | -147.81830 | 2334 ft | 190 kts | 78° |
| 2026-04-29 10:13 | 64.82846 | -147.78735 | 2957 ft | 213 kts | 127° |
| 2026-04-29 10:13 | 64.81552 | -147.76847 | 3430 ft | 235 kts | 169° |
| 2026-04-29 10:14 | 64.79896 | -147.76057 | 4128 ft | 252 kts | 171° |
| 2026-04-29 10:14 | 64.78724 | -147.75484 | 4753 ft | 257 kts | 168° |
| 2026-04-29 10:14 | 64.77055 | -147.73958 | 5824 ft | 259 kts | 156° |
| 2026-04-29 10:14 | 64.75471 | -147.71892 | 6861 ft | 264 kts | 152° |
| 2026-04-29 10:15 | 64.73897 | -147.69660 | 7828 ft | 267 kts | 152° |
| 2026-04-29 10:15 | 64.72283 | -147.67469 | 8787 ft | 270 kts | 154° |
| 2026-04-29 10:15 | 64.70629 | -147.65356 | 9702 ft | 274 kts | 154° |
| 2026-04-29 10:15 | 64.68935 | -147.63112 | 10434 ft | 287 kts | 146° |
| 2026-04-29 10:16 | 64.67430 | -147.59879 | 11102 ft | 303 kts | 133° |
| 2026-04-29 10:16 | 64.66213 | -147.55683 | 11696 ft | 320 kts | 124° |
| 2026-04-29 10:16 | 64.65054 | -147.51157 | 12403 ft | 330 kts | 125° |
| 2026-04-29 10:16 | 64.63880 | -147.46572 | 13332 ft | 329 kts | 124° |
| 2026-04-29 10:17 | 64.62685 | -147.41955 | 14152 ft | 337 kts | 124° |
| 2026-04-29 10:17 | 64.61460 | -147.37266 | 15009 ft | 340 kts | 124° |
| 2026-04-29 10:17 | 64.60222 | -147.32522 | 15907 ft | 345 kts | 124° |
| 2026-04-29 10:17 | 64.58967 | -147.27716 | 16776 ft | 348 kts | 124° |
| 2026-04-29 10:18 | 64.57702 | -147.22884 | 17638 ft | 352 kts | 124° |
| 2026-04-29 10:18 | 64.56418 | -147.17988 | 18483 ft | 356 kts | 124° |
| 2026-04-29 10:18 | 64.55118 | -147.13046 | 19328 ft | 360 kts | 124° |
| 2026-04-29 10:18 | 64.53804 | -147.08057 | 20157 ft | 364 kts | 124° |
| 2026-04-29 10:19 | 64.52492 | -147.03091 | 20953 ft | 367 kts | 124° |
| 2026-04-29 10:19 | 64.51148 | -146.98014 | 21734 ft | 371 kts | 124° |
| 2026-04-29 10:19 | 64.49789 | -146.92892 | 22489 ft | 374 kts | 124° |
| 2026-04-29 10:19 | 64.48414 | -146.87725 | 23217 ft | 378 kts | 124° |
| 2026-04-29 10:20 | 64.47026 | -146.82517 | 23925 ft | 381 kts | 124° |
| 2026-04-29 10:20 | 64.45604 | -146.77194 | 24600 ft | 385 kts | 124° |
| 2026-04-29 10:20 | 64.44182 | -146.71889 | 25227 ft | 390 kts | 125° |
| 2026-04-29 10:20 | 64.42743 | -146.66529 | 25825 ft | 394 kts | 125° |
| 2026-04-29 10:21 | 64.41286 | -146.61117 | 26412 ft | 398 kts | 125° |
| 2026-04-29 10:21 | 64.39816 | -146.55669 | 26980 ft | 402 kts | 125° |
| 2026-04-29 10:21 | 64.38323 | -146.50148 | 27523 ft | 406 kts | 126° |
| 2026-04-29 10:21 | 64.36817 | -146.44596 | 28049 ft | 410 kts | 126° |
| 2026-04-29 10:22 | 64.35298 | -146.39011 | 28548 ft | 413 kts | 126° |
| 2026-04-29 10:22 | 64.33762 | -146.33376 | 29025 ft | 417 kts | 126° |
| 2026-04-29 10:22 | 64.32210 | -146.27705 | 29493 ft | 419 kts | 126° |
| 2026-04-29 10:22 | 64.30647 | -146.21999 | 29935 ft | 422 kts | 126° |
| 2026-04-29 10:23 | 64.29063 | -146.16272 | 30344 ft | 425 kts | 127° |
| 2026-04-29 10:23 | 64.27430 | -146.10560 | 30712 ft | 429 kts | 128° |
| 2026-04-29 10:23 | 64.25759 | -146.04848 | 31059 ft | 432 kts | 128° |
| 2026-04-29 10:23 | 64.24059 | -145.99046 | 31165 ft | 442 kts | 128° |
| 2026-04-29 10:24 | 64.22346 | -145.93141 | 31405 ft | 446 kts | 128° |
| 2026-04-29 10:24 | 64.20650 | -145.87262 | 31713 ft | 448 kts | 128° |
| 2026-04-29 10:24 | 64.18898 | -145.81207 | 32041 ft | 450 kts | 128° |
| 2026-04-29 10:24 | 64.17160 | -145.75246 | 32440 ft | 449 kts | 128° |
| 2026-04-29 10:25 | 64.15416 | -145.69306 | 32839 ft | 449 kts | 128° |
| 2026-04-29 10:25 | 64.13672 | -145.63383 | 33238 ft | 448 kts | 128° |
| 2026-04-29 10:25 | 64.11934 | -145.57487 | 33636 ft | 447 kts | 128° |
| 2026-04-29 10:25 | 64.10192 | -145.51580 | 34036 ft | 446 kts | 128° |
| 2026-04-29 10:26 | 64.08456 | -145.45706 | 34435 ft | 445 kts | 129° |
| 2026-04-29 10:26 | 64.06725 | -145.39870 | 34833 ft | 444 kts | 128° |
| 2026-04-29 10:26 | 64.04992 | -145.34048 | 35232 ft | 442 kts | 129° |
| 2026-04-29 10:26 | 64.03264 | -145.28256 | 35633 ft | 441 kts | 129° |
| 2026-04-29 10:27 | 63.99822 | -145.16762 | 36428 ft | 437 kts | 129° |
| 2026-04-29 10:27 | 63.98110 | -145.11063 | 36826 ft | 435 kts | 129° |
| 2026-04-29 10:27 | 63.96398 | -145.05384 | 37056 ft | 438 kts | 129° |
| 2026-04-29 10:28 | 63.94657 | -144.99634 | 37066 ft | 445 kts | 129° |
| 2026-04-29 10:28 | 63.91094 | -144.87892 | 37072 ft | 457 kts | 129° |
| 2026-04-29 10:29 | 63.87461 | -144.75955 | 37074 ft | 460 kts | 129° |
| 2026-04-29 10:29 | 63.83823 | -144.64079 | 37074 ft | 457 kts | 129° |
| 2026-04-29 10:30 | 63.80191 | -144.52298 | 37076 ft | 456 kts | 129° |
| 2026-04-29 10:30 | 63.76554 | -144.40556 | 37078 ft | 456 kts | 129° |
| 2026-04-29 10:31 | 63.72882 | -144.28759 | 37081 ft | 456 kts | 129° |
| 2026-04-29 10:31 | 63.69225 | -144.17073 | 37082 ft | 456 kts | 129° |
| 2026-04-29 10:32 | 63.65556 | -144.05407 | 37084 ft | 456 kts | 129° |
| 2026-04-29 10:32 | 63.61875 | -143.93774 | 37086 ft | 457 kts | 129° |
| 2026-04-29 10:33 | 63.58183 | -143.82159 | 37088 ft | 457 kts | 130° |
| 2026-04-29 10:33 | 63.54486 | -143.70573 | 37090 ft | 457 kts | 130° |
| 2026-04-29 10:34 | 63.50773 | -143.59013 | 37092 ft | 457 kts | 130° |
| 2026-04-29 10:34 | 63.47053 | -143.47488 | 37093 ft | 457 kts | 130° |
| 2026-04-29 10:35 | 63.43321 | -143.35983 | 37093 ft | 457 kts | 130° |
| 2026-04-29 10:35 | 63.39585 | -143.24523 | 37096 ft | 457 kts | 130° |
| 2026-04-29 10:36 | 63.35834 | -143.13076 | 37098 ft | 457 kts | 130° |
| 2026-04-29 10:36 | 63.32073 | -143.01655 | 37098 ft | 457 kts | 131° |
| 2026-04-29 10:37 | 63.28301 | -142.90262 | 37100 ft | 458 kts | 131° |
| 2026-04-29 10:37 | 63.24524 | -142.78904 | 37099 ft | 455 kts | 131° |
| 2026-04-29 10:38 | 63.20769 | -142.67671 | 37101 ft | 452 kts | 131° |
| 2026-04-29 10:38 | 63.17014 | -142.56500 | 37101 ft | 452 kts | 131° |
| 2026-04-29 10:39 | 63.13254 | -142.45365 | 37103 ft | 452 kts | 131° |
| 2026-04-29 10:39 | 63.09482 | -142.34247 | 37104 ft | 452 kts | 131° |
| 2026-04-29 10:40 | 63.05704 | -142.23168 | 37104 ft | 452 kts | 131° |
| 2026-04-29 10:40 | 63.01916 | -142.12111 | 37104 ft | 452 kts | 132° |
| 2026-04-29 10:41 | 62.98118 | -142.01089 | 37106 ft | 452 kts | 132° |
| 2026-04-29 10:41 | 62.94190 | -141.90347 | 37112 ft | 447 kts | 141° |
| 2026-04-29 10:42 | 62.89604 | -141.81207 | 37108 ft | 445 kts | 143° |
| 2026-04-29 10:42 | 62.84968 | -141.72232 | 37105 ft | 445 kts | 144° |
| 2026-04-29 10:43 | 62.80328 | -141.63253 | 37106 ft | 445 kts | 143° |
| 2026-04-29 10:43 | 62.75690 | -141.54280 | 37105 ft | 445 kts | 144° |
| 2026-04-29 10:44 | 62.71042 | -141.45358 | 37105 ft | 445 kts | 144° |
| 2026-04-29 10:44 | 62.66396 | -141.36474 | 37106 ft | 445 kts | 144° |
| 2026-04-29 10:45 | 62.61742 | -141.27607 | 37105 ft | 445 kts | 144° |
| 2026-04-29 10:45 | 62.57082 | -141.18772 | 37106 ft | 445 kts | 144° |
| 2026-04-29 10:46 | 62.52418 | -141.09966 | 37107 ft | 445 kts | 144° |
| 2026-04-29 10:46 | 62.47748 | -141.01194 | 37109 ft | 444 kts | 144° |
| 2026-04-29 10:47 | 62.43072 | -140.92445 | 37111 ft | 445 kts | 144° |
| 2026-04-29 10:47 | 62.38380 | -140.83727 | 37110 ft | 445 kts | 144° |
| 2026-04-29 10:48 | 62.33686 | -140.75037 | 37111 ft | 445 kts | 145° |
| 2026-04-29 10:48 | 62.28987 | -140.66374 | 37111 ft | 446 kts | 145° |
| 2026-04-29 10:49 | 62.24278 | -140.57728 | 37111 ft | 445 kts | 145° |
| 2026-04-29 10:49 | 62.19565 | -140.49114 | 37116 ft | 446 kts | 145° |
| 2026-04-29 10:50 | 62.15604 | -140.41904 | 37117 ft | 446 kts | 145° |
| 2026-04-29 10:50 | 62.10878 | -140.33331 | 37118 ft | 445 kts | 145° |
| 2026-04-29 10:51 | 62.06149 | -140.24791 | 37125 ft | 445 kts | 146° |
| 2026-04-29 10:51 | 62.01421 | -140.16288 | 37123 ft | 445 kts | 146° |
| 2026-04-29 10:52 | 61.96685 | -140.07806 | 37117 ft | 445 kts | 146° |
| 2026-04-29 10:52 | 61.91943 | -139.99352 | 37119 ft | 446 kts | 146° |
| 2026-04-29 10:53 | 61.87196 | -139.90919 | 37129 ft | 445 kts | 146° |
| 2026-04-29 10:53 | 61.82446 | -139.82520 | 37135 ft | 444 kts | 146° |
| 2026-04-29 10:54 | 61.77693 | -139.74150 | 37123 ft | 444 kts | 146° |
| 2026-04-29 10:54 | 61.72932 | -139.65802 | 37113 ft | 445 kts | 146° |
| 2026-04-29 10:55 | 61.68168 | -139.57479 | 37117 ft | 445 kts | 146° |
| 2026-04-29 10:55 | 61.63394 | -139.49177 | 37114 ft | 446 kts | 147° |
| 2026-04-29 10:56 | 61.58610 | -139.40891 | 37120 ft | 445 kts | 147° |
| 2026-04-29 10:56 | 61.53832 | -139.32647 | 37112 ft | 445 kts | 147° |
| 2026-04-29 10:57 | 61.49006 | -139.24359 | 37113 ft | 446 kts | 147° |
| 2026-04-29 10:57 | 61.44212 | -139.16156 | 37107 ft | 445 kts | 147° |
| 2026-04-29 10:58 | 61.39411 | -139.07983 | 37115 ft | 446 kts | 147° |
| 2026-04-29 10:58 | 61.34420 | -139.00488 | 37115 ft | 440 kts | 154° |
| 2026-04-29 10:59 | 61.29263 | -138.93636 | 37118 ft | 440 kts | 154° |
| 2026-04-29 10:59 | 61.24095 | -138.86838 | 37125 ft | 439 kts | 154° |
| 2026-04-29 11:00 | 61.18934 | -138.80052 | 37106 ft | 439 kts | 154° |
| 2026-04-29 11:00 | 61.13760 | -138.73279 | 37122 ft | 440 kts | 154° |
| 2026-04-29 11:01 | 61.08587 | -138.66536 | 37121 ft | 440 kts | 154° |
| 2026-04-29 11:01 | 61.03404 | -138.59805 | 37127 ft | 441 kts | 154° |
| 2026-04-29 11:02 | 60.98209 | -138.53086 | 37126 ft | 441 kts | 154° |
| 2026-04-29 11:02 | 60.93016 | -138.46394 | 37146 ft | 440 kts | 154° |
| 2026-04-29 11:03 | 60.87822 | -138.39728 | 37139 ft | 440 kts | 155° |
| 2026-04-29 11:03 | 60.82625 | -138.33085 | 37146 ft | 441 kts | 155° |
| 2026-04-29 11:04 | 60.77418 | -138.26455 | 37159 ft | 441 kts | 155° |
| 2026-04-29 11:04 | 60.72209 | -138.19844 | 37160 ft | 441 kts | 155° |
| 2026-04-29 11:05 | 60.66953 | -138.13204 | 37180 ft | 441 kts | 155° |
| 2026-04-29 11:05 | 60.61768 | -138.06675 | 37181 ft | 441 kts | 154° |
| 2026-04-29 11:06 | 60.56517 | -138.00092 | 37186 ft | 441 kts | 155° |
| 2026-04-29 11:06 | 60.51452 | -137.93765 | 37202 ft | 441 kts | 155° |
| 2026-04-29 11:07 | 60.46225 | -137.87258 | 37197 ft | 441 kts | 155° |
| 2026-04-29 11:07 | 60.40981 | -137.80759 | 37209 ft | 442 kts | 155° |
| 2026-04-29 11:08 | 60.35733 | -137.74277 | 37207 ft | 442 kts | 155° |
| 2026-04-29 11:08 | 60.30483 | -137.67818 | 37220 ft | 442 kts | 155° |
| 2026-04-29 11:09 | 60.25233 | -137.61384 | 37226 ft | 441 kts | 155° |
| 2026-04-29 11:09 | 60.19980 | -137.54970 | 37230 ft | 442 kts | 155° |
| 2026-04-29 11:10 | 60.14732 | -137.48587 | 37234 ft | 441 kts | 155° |
| 2026-04-29 11:10 | 60.09475 | -137.42217 | 37241 ft | 441 kts | 155° |
| 2026-04-29 11:11 | 60.04222 | -137.35874 | 37237 ft | 441 kts | 156° |
| 2026-04-29 11:11 | 59.98968 | -137.29556 | 37250 ft | 440 kts | 156° |
| 2026-04-29 11:12 | 59.93716 | -137.23263 | 37251 ft | 441 kts | 156° |
| 2026-04-29 11:12 | 59.88461 | -137.16988 | 37254 ft | 440 kts | 156° |
| 2026-04-29 11:13 | 59.83204 | -137.10736 | 37248 ft | 440 kts | 156° |
| 2026-04-29 11:13 | 59.77942 | -137.04503 | 37253 ft | 440 kts | 156° |
| 2026-04-29 11:14 | 59.72645 | -136.98251 | 37266 ft | 440 kts | 156° |
| 2026-04-29 11:14 | 59.67385 | -136.92063 | 37270 ft | 440 kts | 156° |
| 2026-04-29 11:15 | 59.62125 | -136.85901 | 36608 ft | 439 kts | 156° |
| 2026-04-29 11:15 | 59.59505 | -136.82835 | 36070 ft | 436 kts | 157° |
| 2026-04-29 11:15 | 59.56901 | -136.79795 | 35550 ft | 434 kts | 158° |
| 2026-04-29 11:15 | 59.54311 | -136.76779 | 35036 ft | 431 kts | 158° |
| 2026-04-29 11:16 | 59.51734 | -136.73786 | 34533 ft | 429 kts | 159° |
| 2026-04-29 11:16 | 59.49169 | -136.70812 | 34028 ft | 427 kts | 159° |
| 2026-04-29 11:16 | 59.46615 | -136.67855 | 33522 ft | 425 kts | 159° |
| 2026-04-29 11:16 | 59.44070 | -136.64913 | 33019 ft | 423 kts | 160° |
| 2026-04-29 11:17 | 59.41535 | -136.61987 | 32515 ft | 422 kts | 160° |
| 2026-04-29 11:17 | 59.39010 | -136.59077 | 32014 ft | 420 kts | 160° |
| 2026-04-29 11:17 | 59.36494 | -136.56185 | 31514 ft | 418 kts | 160° |
| 2026-04-29 11:17 | 59.33988 | -136.53309 | 31017 ft | 416 kts | 161° |
| 2026-04-29 11:18 | 59.31492 | -136.50451 | 30522 ft | 415 kts | 161° |
| 2026-04-29 11:18 | 59.29007 | -136.47608 | 30028 ft | 413 kts | 161° |
| 2026-04-29 11:18 | 59.26533 | -136.44783 | 29536 ft | 411 kts | 161° |
| 2026-04-29 11:18 | 59.24067 | -136.41988 | 29049 ft | 409 kts | 161° |
| 2026-04-29 11:19 | 59.21618 | -136.39224 | 28572 ft | 406 kts | 161° |
| 2026-04-29 11:19 | 59.19175 | -136.36473 | 28088 ft | 404 kts | 161° |
| 2026-04-29 11:19 | 59.16708 | -136.33694 | 27596 ft | 402 kts | 161° |
| 2026-04-29 11:19 | 59.14327 | -136.31014 | 27122 ft | 400 kts | 161° |
| 2026-04-29 11:20 | 59.11888 | -136.28272 | 26636 ft | 398 kts | 160° |
| 2026-04-29 11:20 | 59.09494 | -136.25584 | 26159 ft | 396 kts | 160° |
| 2026-04-29 11:20 | 59.07111 | -136.22917 | 25685 ft | 394 kts | 160° |
| 2026-04-29 11:20 | 59.04741 | -136.20268 | 25213 ft | 392 kts | 160° |
| 2026-04-29 11:21 | 59.02384 | -136.17638 | 24744 ft | 390 kts | 160° |
| 2026-04-29 11:21 | 59.00040 | -136.15026 | 24278 ft | 387 kts | 160° |
| 2026-04-29 11:21 | 58.97710 | -136.12433 | 23815 ft | 385 kts | 160° |
| 2026-04-29 11:21 | 58.95395 | -136.09860 | 23355 ft | 382 kts | 159° |
| 2026-04-29 11:22 | 58.93093 | -136.07308 | 22897 ft | 380 kts | 159° |
| 2026-04-29 11:22 | 58.90808 | -136.04777 | 22443 ft | 377 kts | 159° |
| 2026-04-29 11:22 | 58.88539 | -136.02268 | 21993 ft | 374 kts | 159° |
| 2026-04-29 11:22 | 58.86291 | -135.99786 | 21547 ft | 371 kts | 159° |
| 2026-04-29 11:23 | 58.84051 | -135.97316 | 21102 ft | 368 kts | 159° |
| 2026-04-29 11:23 | 58.82583 | -135.95701 | 20811 ft | 366 kts | 159° |
| 2026-04-29 11:23 | 58.79640 | -135.92464 | 20228 ft | 362 kts | 158° |
| 2026-04-29 11:23 | 58.78193 | -135.90875 | 19939 ft | 360 kts | 158° |
| 2026-04-29 11:24 | 58.76030 | -135.88503 | 19512 ft | 356 kts | 158° |
| 2026-04-29 11:24 | 58.73889 | -135.86159 | 19088 ft | 352 kts | 158° |
| 2026-04-29 11:24 | 58.71771 | -135.83844 | 18669 ft | 348 kts | 158° |
| 2026-04-29 11:24 | 58.69680 | -135.81559 | 18255 ft | 343 kts | 158° |
| 2026-04-29 11:25 | 58.67615 | -135.79308 | 17846 ft | 339 kts | 158° |
| 2026-04-29 11:25 | 58.65564 | -135.77078 | 17266 ft | 339 kts | 158° |
| 2026-04-29 11:25 | 58.63509 | -135.74850 | 16735 ft | 338 kts | 158° |
| 2026-04-29 11:25 | 58.61471 | -135.72636 | 16292 ft | 334 kts | 157° |
| 2026-04-29 11:26 | 58.57486 | -135.68307 | 15486 ft | 324 kts | 157° |
| 2026-04-29 11:26 | 58.55542 | -135.66204 | 15100 ft | 318 kts | 157° |
| 2026-04-29 11:26 | 58.53637 | -135.64147 | 14721 ft | 312 kts | 157° |
| 2026-04-29 11:27 | 58.51759 | -135.62122 | 14347 ft | 306 kts | 157° |
| 2026-04-29 11:27 | 58.49923 | -135.60144 | 13987 ft | 300 kts | 157° |
| 2026-04-29 11:27 | 58.48126 | -135.58210 | 13635 ft | 294 kts | 157° |
| 2026-04-29 11:27 | 58.46349 | -135.56302 | 13286 ft | 294 kts | 157° |
| 2026-04-29 11:28 | 58.44552 | -135.54382 | 12934 ft | 298 kts | 157° |
| 2026-04-29 11:28 | 58.42732 | -135.52437 | 12575 ft | 301 kts | 156° |
| 2026-04-29 11:28 | 58.40906 | -135.50478 | 12218 ft | 298 kts | 156° |
| 2026-04-29 11:28 | 58.39116 | -135.48553 | 11853 ft | 292 kts | 156° |
| 2026-04-29 11:29 | 58.37362 | -135.46672 | 11501 ft | 286 kts | 156° |
| 2026-04-29 11:29 | 58.35638 | -135.44833 | 11159 ft | 284 kts | 156° |
| 2026-04-29 11:29 | 58.33899 | -135.42988 | 10817 ft | 288 kts | 155° |
| 2026-04-29 11:29 | 58.32135 | -135.41118 | 10470 ft | 291 kts | 155° |
| 2026-04-29 11:30 | 58.30390 | -135.39257 | 10189 ft | 282 kts | 154° |
| 2026-04-29 11:30 | 58.28725 | -135.37476 | 10078 ft | 268 kts | 154° |
| 2026-04-29 11:30 | 58.27112 | -135.35761 | 9943 ft | 265 kts | 155° |
| 2026-04-29 11:30 | 58.25458 | -135.34018 | 9460 ft | 269 kts | 154° |
| 2026-04-29 11:31 | 58.23822 | -135.32292 | 8995 ft | 269 kts | 154° |
| 2026-04-29 11:31 | 58.22188 | -135.30565 | 8536 ft | 269 kts | 153° |
| 2026-04-29 11:31 | 58.20562 | -135.28832 | 8118 ft | 267 kts | 151° |
| 2026-04-29 11:31 | 58.19263 | -135.26454 | 8059 ft | 262 kts | 124° |
| 2026-04-29 11:32 | 58.18736 | -135.23157 | 7986 ft | 268 kts | 92° |
| 2026-04-29 11:32 | 58.19245 | -135.19750 | 7918 ft | 274 kts | 63° |
| 2026-04-29 11:32 | 58.20110 | -135.16563 | 7613 ft | 271 kts | 68° |
| 2026-04-29 11:32 | 58.20837 | -135.13293 | 7272 ft | 268 kts | 70° |
| 2026-04-29 11:33 | 58.21537 | -135.10032 | 6894 ft | 266 kts | 70° |
| 2026-04-29 11:33 | 58.22293 | -135.06886 | 6716 ft | 257 kts | 59° |
| 2026-04-29 11:33 | 58.23608 | -135.04740 | 6560 ft | 250 kts | 28° |
| 2026-04-29 11:33 | 58.25225 | -135.03808 | 6482 ft | 237 kts | 9° |
| 2026-04-29 11:34 | 58.26832 | -135.03474 | 6254 ft | 232 kts | 4° |
| 2026-04-29 11:34 | 58.28446 | -135.03188 | 5857 ft | 235 kts | 6° |
| 2026-04-29 11:34 | 58.30082 | -135.02765 | 5429 ft | 240 kts | 9° |
| 2026-04-29 11:34 | 58.31735 | -135.02228 | 5057 ft | 240 kts | 10° |
| 2026-04-29 11:35 | 58.33324 | -135.01676 | 5022 ft | 225 kts | 11° |
| 2026-04-29 11:35 | 58.34738 | -135.00834 | 4919 ft | 210 kts | 34° |
| 2026-04-29 11:35 | 58.35601 | -134.98696 | 4630 ft | 201 kts | 77° |
| 2026-04-29 11:35 | 58.35689 | -134.96146 | 4266 ft | 192 kts | 91° |
| 2026-04-29 11:36 | 58.35701 | -134.93600 | 3689 ft | 189 kts | 92° |
| 2026-04-29 11:36 | 58.35709 | -134.91117 | 3112 ft | 186 kts | 91° |
| 2026-04-29 11:36 | 58.35718 | -134.88701 | 2783 ft | 169 kts | 91° |
| 2026-04-29 11:36 | 58.35725 | -134.86448 | 2850 ft | 181 kts | 92° |
| 2026-04-29 11:37 | 58.35732 | -134.84028 | 2869 ft | 186 kts | 91° |
| 2026-04-29 11:37 | 58.35741 | -134.81592 | 2430 ft | 183 kts | 91° |
| 2026-04-29 11:37 | 58.35748 | -134.79188 | 1936 ft | 178 kts | 91° |
| 2026-04-29 11:37 | 58.35766 | -134.76924 | 1629 ft | 164 kts | 90° |
| 2026-04-29 11:38 | 58.35804 | -134.74835 | 1338 ft | 151 kts | 88° |
| 2026-04-29 11:38 | 58.35844 | -134.72926 | 1071 ft | 144 kts | 89° |
| 2026-04-29 11:38 | 58.35874 | -134.70972 | 925 ft | 150 kts | 88° |
| 2026-04-29 11:38 | 58.35902 | -134.68969 | 776 ft | 151 kts | 88° |
| 2026-04-29 11:39 | 58.35939 | -134.66995 | 665 ft | 147 kts | 88° |
| 2026-04-29 11:39 | 58.35952 | -134.65048 | 517 ft | 147 kts | 89° |
| 2026-04-29 11:39 | 58.35968 | -134.63108 | 383 ft | 145 kts | 89° |
| 2026-04-29 11:39 | 58.35934 | -134.61210 | 213 ft | 141 kts | 95° |
| 2026-04-29 11:40 | 58.35755 | -134.59446 | 31 ft | 129 kts | 104° |
| 2026-04-29 11:40 | 58.35556 | -134.58033 | 30 ft | 85 kts | 104° |
| 2026-04-29 11:40 | 58.35466 | -134.57313 | 30 ft | 25 kts | 63° |
| 2026-04-29 11:40 | 58.35567 | -134.57325 | 30 ft | 18 kts | 305° |
| 2026-04-29 11:41 | 58.35594 | -134.57494 | 30 ft | 14 kts | 283° |
| 2026-04-29 11:41 | 58.35627 | -134.57744 | 30 ft | 23 kts | 284° |
| 2026-04-29 11:41 | 58.35656 | -134.57939 | 30 ft | 7 kts | 290° |
| 2026-04-29 11:41 | 58.35683 | -134.57982 | 30 ft | 4 kts | 349° |
| 2026-04-29 11:42 | 58.35716 | -134.57984 | 30 ft | 7 kts | 351° |
| 2026-04-29 11:42 | 58.35750 | -134.58059 | 30 ft | 7 kts | 283° |
| 2026-04-29 11:42 | 58.35762 | -134.58145 | 30 ft | 6 kts | 292° |
| 2026-04-29 11:42 | 58.35795 | -134.58227 | 30 ft | 7 kts | 317° |
| 2026-04-29 11:43 | 58.35828 | -134.58278 | 30 ft | 4 kts | 326° |
| 2026-04-29 11:43 | 58.35843 | -134.58289 | 30 ft | 0 kts | 342° |
| 2026-04-29 11:55 | 58.35847 | -134.58304 | 30 ft | 0 kts | 0° |